Time;durP1;ratioP1;P1;durP2;ratioP2;P2;SDS_P1;SDS_P2;PMS_P1;PMS_P2;Temp;Humidity;BMP_temperature;BMP_pressure;BME280_temperature;BME280_humidity;BME280_pressure;Samples;Min_cycle;Max_cycle;Signal;HPM_P1;HPM_P2
2023/06/04 00:01:26;;;;;;;5.65;2.15;;;19.60;58.70;;;;;;4190928;28;20056;-59
2023/06/04 00:04:07;;;;;;;6.35;2.45;;;19.60;58.80;;;;;;4190861;28;20059;-60
2023/06/04 00:06:48;;;;;;;6.70;2.05;;;19.50;58.80;;;;;;4197848;28;20071;-59
2023/06/04 00:09:29;;;;;;;9.13;2.22;;;19.50;58.80;;;;;;4209411;28;20055;-59
2023/06/04 00:12:12;;;;;;;4.25;2.50;;;19.50;58.90;;;;;;4207820;28;20177;-58
2023/06/04 00:14:52;;;;;;;5.75;2.08;;;19.50;58.90;;;;;;4208760;28;20054;-59
2023/06/04 00:17:33;;;;;;;5.00;2.42;;;19.50;59.10;;;;;;4208412;28;20047;-59
2023/06/04 00:20:14;;;;;;;5.43;2.22;;;19.50;59.10;;;;;;4208978;28;20063;-58
2023/06/04 00:22:55;;;;;;;8.27;2.80;;;19.50;59.20;;;;;;4196013;28;20052;-60
2023/06/04 00:25:36;;;;;;;7.55;2.92;;;19.50;59.20;;;;;;4190881;28;20068;-59
2023/06/04 00:28:18;;;;;;;5.97;2.50;;;19.50;59.20;;;;;;4207879;28;20054;-59
2023/06/04 00:31:00;;;;;;;5.15;1.95;;;19.50;59.30;;;;;;4207573;28;20050;-59
2023/06/04 00:33:41;;;;;;;5.07;1.95;;;19.50;60.10;;;;;;4201002;28;20395;-59
2023/06/04 00:36:22;;;;;;;5.88;2.33;;;19.50;59.40;;;;;;4190898;28;20064;-59
2023/06/04 00:39:03;;;;;;;5.15;2.20;;;19.50;59.50;;;;;;4191655;28;20511;-59
2023/06/04 00:41:44;;;;;;;6.45;2.40;;;19.50;59.50;;;;;;4190786;28;20044;-59
2023/06/04 00:44:27;;;;;;;5.45;2.30;;;19.40;59.60;;;;;;4192027;28;20071;-59
2023/06/04 00:47:08;;;;;;;8.07;2.65;;;19.40;59.70;;;;;;4191639;28;20609;-59
2023/06/04 00:49:48;;;;;;;5.32;2.00;;;19.40;59.80;;;;;;4192303;28;20051;-59
2023/06/04 00:52:30;;;;;;;8.68;2.33;;;19.40;59.70;;;;;;4191948;28;20395;-59
2023/06/04 00:55:11;;;;;;;;;;;19.40;59.70;;;;;;4191158;28;20183;-59
2023/06/04 00:57:51;;;;;;;9.30;2.78;;;19.40;59.70;;;;;;4190753;28;19926;-59
2023/06/04 01:00:34;;;;;;;4.78;2.50;;;19.40;59.80;;;;;;4191670;28;20062;-59
2023/06/04 01:03:19;;;;;;;2.83;2.33;;;19.40;59.90;;;;;;4207477;28;20055;-59
2023/06/04 01:06:09;;;;;;;8.32;2.95;;;19.40;60.00;;;;;;4208416;28;20050;-59
2023/06/04 01:08:54;;;;;;;9.95;2.83;;;19.40;60.10;;;;;;4208482;28;20050;-59
2023/06/04 01:11:37;;;;;;;9.30;2.67;;;19.30;60.10;;;;;;4181493;28;20055;-59
2023/06/04 01:14:18;;;;;;;4.63;2.55;;;19.30;60.20;;;;;;4190279;28;20129;-59
2023/06/04 01:17:08;;;;;;;6.68;2.17;;;19.30;60.40;;;;;;4179078;28;20134;-59
2023/06/04 01:20:19;;;;;;;9.73;2.85;;;19.30;60.60;;;;;;4173928;28;20114;-59
2023/06/04 01:23:28;;;;;;;5.05;2.78;;;19.30;60.70;;;;;;4173673;28;20143;-59
2023/06/04 01:26:11;;;;;;;7.00;2.33;;;19.30;60.90;;;;;;4186958;28;20405;-59
2023/06/04 01:28:53;;;;;;;6.90;3.08;;;19.30;60.70;;;;;;4190353;28;20093;-59
2023/06/04 01:31:33;;;;;;;9.85;3.00;;;19.30;60.90;;;;;;4208329;28;20052;-59
2023/06/04 01:34:16;;;;;;;;;;;19.30;61.00;;;;;;4207127;28;20042;-59
2023/06/04 01:36:56;;;;;;;;;;;19.20;60.80;;;;;;4207574;28;19927;-59
2023/06/04 01:39:37;;;;;;;9.10;2.70;;;19.20;61.70;;;;;;4173431;28;19927;-59
2023/06/04 01:42:26;;;;;;;6.47;2.58;;;19.20;60.90;;;;;;4187067;28;20056;-59
2023/06/04 01:45:09;;;;;;;4.28;2.22;;;19.20;61.10;;;;;;4184448;28;20070;-58
2023/06/04 01:47:49;;;;;;;6.85;2.80;;;19.20;61.00;;;;;;4191813;28;20395;-58
2023/06/04 01:50:32;;;;;;;9.35;3.20;;;19.20;61.10;;;;;;4190462;28;20051;-59
2023/06/04 01:53:13;;;;;;;5.75;2.50;;;19.20;61.20;;;;;;4193411;28;20055;-58
2023/06/04 01:55:54;;;;;;;9.02;2.97;;;19.20;61.50;;;;;;4194313;28;20051;-60
2023/06/04 01:58:35;;;;;;;;;;;19.20;61.40;;;;;;4193481;28;20704;-60
2023/06/04 02:01:16;;;;;;;8.55;3.05;;;19.20;62.30;;;;;;4194566;28;19927;-59
2023/06/04 02:03:57;;;;;;;7.88;3.05;;;19.20;61.30;;;;;;4194520;28;20107;-60
2023/06/04 02:06:39;;;;;;;8.18;3.03;;;19.20;61.40;;;;;;4194386;28;20133;-59
2023/06/04 02:09:21;;;;;;;6.65;2.90;;;19.20;62.30;;;;;;4193369;28;20048;-60
2023/06/04 02:12:02;;;;;;;8.07;3.35;;;19.20;61.50;;;;;;4193509;28;20064;-59
2023/06/04 02:14:44;;;;;;;8.15;3.17;;;19.20;61.50;;;;;;4176746;28;20500;-60
2023/06/04 02:17:25;;;;;;;7.63;3.20;;;19.20;61.60;;;;;;4208208;28;20415;-60
2023/06/04 02:20:09;;;;;;;7.32;3.05;;;19.20;61.60;;;;;;4210802;28;20158;-59
2023/06/04 02:22:51;;;;;;;14.13;3.58;;;19.10;61.60;;;;;;4210997;28;20218;-60
2023/06/04 02:25:32;;;;;;;7.18;3.25;;;19.20;61.70;;;;;;4209746;28;20609;-62
2023/06/04 02:28:14;;;;;;;8.77;3.47;;;19.10;62.50;;;;;;4166285;28;20052;-62
2023/06/04 02:30:55;;;;;;;9.52;3.22;;;19.10;61.70;;;;;;4177615;28;20056;-60
2023/06/04 02:33:36;;;;;;;6.57;2.88;;;19.10;61.70;;;;;;4176373;28;20056;-60
2023/06/04 02:36:18;;;;;;;9.77;3.75;;;19.10;62.70;;;;;;4183102;28;20581;-59
2023/06/04 02:39:01;;;;;;;6.88;3.10;;;19.10;61.80;;;;;;4192997;28;20589;-60
2023/06/04 02:41:42;;;;;;;8.02;3.30;;;19.10;61.80;;;;;;4194262;28;20052;-60
2023/06/04 02:44:23;;;;;;;7.97;3.75;;;19.10;62.70;;;;;;4194180;28;20634;-60
2023/06/04 02:47:06;;;;;;;7.47;2.67;;;19.10;61.70;;;;;;4189520;28;20178;-59
2023/06/04 02:49:48;;;;;;;6.85;2.97;;;19.00;61.70;;;;;;4193517;28;20076;-59
2023/06/04 02:52:30;;;;;;;6.32;2.95;;;19.00;61.70;;;;;;4192368;28;20412;-61
2023/06/04 02:55:12;;;;;;;9.82;3.42;;;19.00;62.60;;;;;;4192963;28;20186;-60
2023/06/04 02:57:53;;;;;;;8.55;3.17;;;19.00;61.70;;;;;;4193542;28;20063;-61
2023/06/04 03:00:34;;;;;;;8.27;3.33;;;19.00;61.80;;;;;;4176568;28;20051;-61
2023/06/04 03:03:16;;;;;;;6.07;3.20;;;19.00;62.00;;;;;;4175565;28;20048;-61
2023/06/04 03:05:59;;;;;;;;;;;19.00;62.10;;;;;;4191554;28;20052;-60
2023/06/04 03:08:40;;;;;;;7.97;3.67;;;19.00;62.10;;;;;;4193653;28;19927;-60
2023/06/04 03:11:23;;;;;;;5.53;3.42;;;18.90;62.10;;;;;;4193582;28;20132;-60
2023/06/04 03:14:03;;;;;;;9.45;3.78;;;18.90;62.10;;;;;;4193424;28;20052;-60
2023/06/04 03:16:45;;;;;;;7.32;3.78;;;18.90;62.10;;;;;;4175554;28;20063;-60
2023/06/04 03:19:26;;;;;;;8.45;3.75;;;18.90;62.20;;;;;;4176834;28;20439;-60
2023/06/04 03:22:08;;;;;;;8.73;4.18;;;18.90;62.50;;;;;;4176483;28;20055;-60
2023/06/04 03:24:49;;;;;;;8.27;3.88;;;18.90;62.80;;;;;;4189620;28;20131;-60
2023/06/04 03:27:33;;;;;;;8.38;3.83;;;18.90;62.90;;;;;;4192937;28;20059;-60
2023/06/04 03:30:14;;;;;;;8.85;3.58;;;18.90;62.90;;;;;;4191933;28;20395;-60
2023/06/04 03:33:06;;;;;;;5.38;3.60;;;18.90;63.00;;;;;;4175287;28;20160;-60
2023/06/04 03:35:47;;;;;;;6.43;4.00;;;18.90;62.90;;;;;;4175326;28;20052;-60
2023/06/04 03:38:28;;;;;;;6.60;3.53;;;18.90;63.00;;;;;;4176577;28;20052;-60
2023/06/04 03:41:09;;;;;;;12.25;4.05;;;18.80;63.00;;;;;;4176394;28;20056;-61
2023/06/04 03:43:52;;;;;;;7.85;3.80;;;18.80;63.10;;;;;;4182595;28;20098;-61
2023/06/04 03:46:33;;;;;;;6.93;3.72;;;18.80;64.10;;;;;;4190812;28;20051;-61
2023/06/04 03:49:17;;;;;;;7.60;3.53;;;18.90;63.40;;;;;;4191803;28;20063;-61
2023/06/04 03:51:59;;;;;;;6.13;3.92;;;18.80;63.30;;;;;;4179648;28;20055;-61
2023/06/04 03:54:42;;;;;;;7.85;3.42;;;18.90;63.40;;;;;;4205003;28;20066;-61
2023/06/04 03:57:23;;;;;;;6.63;3.25;;;18.90;63.40;;;;;;4209606;28;20525;-61
2023/06/04 04:00:12;;;;;;;8.75;4.00;;;18.90;63.50;;;;;;4208578;28;20605;-61
2023/06/04 04:02:53;;;;;;;8.32;4.25;;;18.80;63.40;;;;;;4199853;28;20134;-61
2023/06/04 04:05:38;;;;;;;6.30;3.03;;;18.90;63.60;;;;;;4191680;28;20055;-61
2023/06/04 04:08:21;;;;;;;5.07;2.83;;;18.80;63.60;;;;;;4192810;28;20177;-61
2023/06/04 04:11:02;;;;;;;5.80;3.53;;;18.80;63.60;;;;;;4191435;28;20047;-61
2023/06/04 04:13:43;;;;;;;5.60;2.92;;;18.80;63.70;;;;;;4176095;28;20048;-61
2023/06/04 04:16:27;;;;;;;7.18;3.33;;;18.80;63.70;;;;;;4174254;28;20613;-62
2023/06/04 04:19:09;;;;;;;6.22;2.90;;;18.80;64.60;;;;;;4174747;28;20044;-62
2023/06/04 04:21:51;;;;;;;4.28;2.60;;;18.80;63.70;;;;;;4208137;28;20524;-62
2023/06/04 04:24:34;;;;;;;6.82;3.00;;;18.80;63.80;;;;;;4208353;28;20178;-62
2023/06/04 04:27:16;;;;;;;5.13;2.90;;;18.80;63.90;;;;;;4208025;28;20074;-62
2023/06/04 04:29:59;;;;;;;8.85;3.22;;;18.80;64.00;;;;;;4177482;28;20179;-62
2023/06/04 04:32:48;;;;;;;7.05;3.28;;;18.80;64.00;;;;;;4180161;28;20055;-62
2023/06/04 04:35:34;;;;;;;9.05;3.03;;;18.80;64.10;;;;;;4191375;28;20510;-61
2023/06/04 04:38:18;;;;;;;5.82;3.17;;;18.80;64.20;;;;;;4191031;28;20629;-61
2023/06/04 04:41:07;;;;;;;7.70;3.58;;;18.80;64.30;;;;;;4201257;28;20125;-61
2023/06/04 04:43:49;;;;;;;6.60;3.30;;;18.80;64.40;;;;;;4207811;28;20051;-61
2023/06/04 04:46:35;;;;;;;8.48;3.25;;;18.80;64.50;;;;;;4203101;28;20093;-61
2023/06/04 04:49:18;;;;;;;5.18;2.80;;;18.80;65.60;;;;;;4191272;28;20055;-62
2023/06/04 04:51:58;;;;;;;6.00;2.78;;;18.90;64.90;;;;;;4201400;28;20118;-61
2023/06/04 04:54:40;;;;;;;5.40;3.00;;;18.90;65.10;;;;;;4191113;28;20056;-61
2023/06/04 04:57:23;;;;;;;8.57;2.88;;;18.90;65.40;;;;;;4191076;28;20055;-59
2023/06/04 05:00:09;;;;;;;8.18;3.33;;;18.90;65.60;;;;;;4195710;28;20055;-60
2023/06/04 05:02:51;;;;;;;5.22;3.22;;;18.90;66.00;;;;;;4207302;28;20073;-59
2023/06/04 05:05:34;;;;;;;7.97;3.72;;;18.90;65.90;;;;;;4188292;28;20454;-59
2023/06/04 05:08:17;;;;;;;7.50;3.83;;;19.00;66.10;;;;;;4190902;28;20060;-59
2023/06/04 05:10:59;;;;;;;8.73;3.00;;;19.00;66.30;;;;;;4205400;28;20150;-60
2023/06/04 05:13:41;;;;;;;;;;;19.00;66.50;;;;;;4208112;28;20580;-60
2023/06/04 05:16:24;;;;;;;6.75;3.42;;;19.00;66.50;;;;;;4198988;28;19932;-61
2023/06/04 05:19:05;;;;;;;10.05;3.90;;;19.00;66.50;;;;;;4190830;28;20097;-62
2023/06/04 05:21:51;;;;;;;12.43;4.30;;;19.10;66.90;;;;;;4206702;28;20050;-62
2023/06/04 05:24:32;;;;;;;11.73;3.17;;;19.20;67.20;;;;;;4207578;28;20104;-62
2023/06/04 05:27:16;;;;;;;9.80;3.17;;;19.20;67.10;;;;;;4209620;28;20067;-59
2023/06/04 05:29:57;;;;;;;7.78;3.80;;;19.30;66.80;;;;;;4194196;28;20047;-60
2023/06/04 05:32:40;;;;;;;9.80;3.42;;;19.40;66.50;;;;;;4177259;28;20048;-60
2023/06/04 05:35:24;;;;;;;6.13;2.30;;;19.50;65.90;;;;;;4176908;28;20064;-60
2023/06/04 05:38:08;;;;;;;8.30;2.60;;;19.60;65.50;;;;;;4180984;28;20083;-60
2023/06/04 05:40:49;;;;;;;6.65;2.28;;;19.60;65.20;;;;;;4194833;28;20130;-61
2023/06/04 05:43:30;;;;;;;6.85;2.67;;;19.70;65.10;;;;;;4194739;28;20094;-61
2023/06/04 05:46:10;;;;;;;4.40;1.92;;;19.70;64.90;;;;;;4181920;28;20125;-62
2023/06/04 05:48:53;;;;;;;8.45;2.72;;;19.70;64.60;;;;;;4202948;28;20193;-59
2023/06/04 05:51:36;;;;;;;8.25;2.70;;;19.80;64.30;;;;;;4210242;28;20051;-66
2023/06/04 05:54:18;;;;;;;7.07;2.40;;;19.70;63.80;;;;;;4198157;28;20510;-68
2023/06/04 05:56:59;;;;;;;3.92;1.80;;;19.80;63.50;;;;;;4209981;28;20050;-65
2023/06/04 05:59:40;;;;;;;7.63;2.28;;;19.70;63.30;;;;;;4194502;28;20399;-63
2023/06/04 06:02:25;;;;;;;5.00;2.05;;;19.70;63.40;;;;;;4193239;28;20056;-62
2023/06/04 06:05:08;;;;;;;5.03;2.30;;;19.70;63.90;;;;;;4193284;28;20052;-64
2023/06/04 06:07:48;;;;;;;7.22;2.42;;;19.70;65.40;;;;;;4207621;28;20051;-64
2023/06/04 06:10:31;;;;;;;5.45;2.22;;;19.70;66.00;;;;;;4209746;28;20121;-64
2023/06/04 06:13:12;;;;;;;5.15;1.90;;;19.70;65.40;;;;;;4209738;28;20121;-65
2023/06/04 06:15:56;;;;;;;5.80;1.95;;;19.70;64.60;;;;;;4192208;28;20530;-65
2023/06/04 06:18:37;;;;;;;4.45;2.33;;;19.70;63.80;;;;;;4176383;28;20048;-65
2023/06/04 06:21:18;;;;;;;3.80;1.90;;;19.70;63.40;;;;;;4177486;28;20102;-65
2023/06/04 06:23:59;;;;;;;5.07;2.08;;;19.80;63.40;;;;;;4180316;28;20198;-65
2023/06/04 06:26:42;;;;;;;3.03;1.55;;;19.80;63.10;;;;;;4193002;28;20134;-66
2023/06/04 06:29:25;;;;;;;4.50;2.00;;;19.90;61.30;;;;;;4183303;28;20507;-65
2023/06/04 06:32:07;;;;;;;4.82;2.40;;;19.90;61.00;;;;;;4192827;28;20396;-65
2023/06/04 06:34:47;;;;;;;7.03;2.40;;;19.90;60.60;;;;;;4186642;28;20181;-62
2023/06/04 06:37:28;;;;;;;3.22;1.50;;;19.90;61.00;;;;;;4210152;28;20047;-62
2023/06/04 06:40:10;;;;;;;5.40;2.20;;;20.00;61.70;;;;;;4192096;28;20047;-65
2023/06/04 06:42:52;;;;;;;5.97;2.03;;;20.00;61.20;;;;;;4193780;28;20051;-65
2023/06/04 06:45:32;;;;;;;6.57;2.25;;;20.10;60.90;;;;;;4195814;28;20051;-65
2023/06/04 06:48:15;;;;;;;6.32;1.80;;;20.10;60.60;;;;;;4192285;28;20059;-62
2023/06/04 06:50:56;;;;;;;2.92;1.77;;;20.20;60.20;;;;;;4194513;28;20813;-61
2023/06/04 06:53:37;;;;;;;6.75;1.58;;;20.20;60.30;;;;;;4209514;28;20046;-62
2023/06/04 06:56:18;;;;;;;3.83;1.48;;;20.30;59.70;;;;;;4192925;28;20058;-65
2023/06/04 06:59:01;;;;;;;3.88;1.67;;;20.30;59.00;;;;;;4189684;28;20052;-64
2023/06/04 07:01:43;;;;;;;2.67;1.52;;;20.40;59.00;;;;;;4186332;28;20507;-65
2023/06/04 07:04:24;;;;;;;1.88;1.67;;;20.40;58.90;;;;;;4176306;28;20187;-65
2023/06/04 07:07:05;;;;;;;5.20;1.50;;;20.40;59.00;;;;;;4176106;28;20060;-65
2023/06/04 07:09:46;;;;;;;3.50;1.73;;;20.50;59.00;;;;;;4185649;28;20486;-65
2023/06/04 07:12:27;;;;;;;3.78;1.90;;;20.50;57.80;;;;;;4185240;28;20075;-65
2023/06/04 07:15:18;;;;;;;1.50;1.40;;;20.60;57.00;;;;;;4186592;28;20055;-62
2023/06/04 07:17:59;;;;;;;2.42;1.52;;;20.50;56.40;;;;;;4174420;28;20422;-62
2023/06/04 07:20:41;;;;;;;3.72;1.90;;;20.60;56.50;;;;;;4193182;28;20121;-62
2023/06/04 07:23:22;;;;;;;1.67;1.40;;;20.60;56.70;;;;;;4195756;28;20046;-65
2023/06/04 07:26:03;;;;;;;2.25;1.58;;;20.60;56.70;;;;;;4188246;28;20121;-62
2023/06/04 07:28:44;;;;;;;4.55;1.95;;;20.60;56.70;;;;;;4193153;28;20134;-62
2023/06/04 07:31:26;;;;;;;1.70;1.60;;;20.60;56.40;;;;;;4192903;28;20379;-66
2023/06/04 07:34:07;;;;;;;4.40;1.65;;;20.60;56.40;;;;;;4174466;28;20071;-66
2023/06/04 07:36:48;;;;;;;3.97;1.70;;;20.60;56.20;;;;;;4176128;28;20403;-65
2023/06/04 07:39:29;;;;;;;3.53;1.52;;;20.60;56.10;;;;;;4185211;28;20121;-61
2023/06/04 07:42:10;;;;;;;5.32;1.92;;;20.60;55.90;;;;;;4207236;28;20043;-65
2023/06/04 07:44:51;;;;;;;3.05;2.00;;;20.60;55.70;;;;;;4209896;28;20403;-62
2023/06/04 07:47:33;;;;;;;5.30;1.67;;;20.60;55.40;;;;;;4186635;28;20401;-65
2023/06/04 07:50:14;;;;;;;1.80;1.70;;;20.50;55.60;;;;;;4175920;28;20055;-66
2023/06/04 07:52:55;;;;;;;4.28;1.98;;;20.50;55.80;;;;;;4209272;28;20106;-61
2023/06/04 07:55:36;;;;;;;2.33;2.00;;;20.50;55.50;;;;;;4210040;28;20043;-66
2023/06/04 07:58:17;;;;;;;3.60;1.55;;;20.50;55.00;;;;;;4192883;28;20039;-65
2023/06/04 08:00:58;;;;;;;3.88;1.88;;;20.50;55.20;;;;;;4191153;28;20055;-65
2023/06/04 08:03:41;;;;;;;1.98;1.40;;;20.50;56.10;;;;;;4192773;28;20050;-62
2023/06/04 08:06:24;;;;;;;3.97;1.70;;;20.40;55.40;;;;;;4193080;28;20052;-62
2023/06/04 08:09:05;;;;;;;3.95;1.45;;;20.40;55.40;;;;;;4192091;28;20051;-62
2023/06/04 08:11:46;;;;;;;3.95;1.77;;;20.40;56.40;;;;;;4192806;28;20051;-61
2023/06/04 08:14:27;;;;;;;5.82;1.58;;;20.40;55.60;;;;;;4192175;28;20063;-62
2023/06/04 08:17:08;;;;;;;3.83;1.48;;;20.40;55.90;;;;;;4191391;28;20106;-62
2023/06/04 08:19:57;;;;;;;5.40;1.80;;;20.40;56.10;;;;;;4191570;28;20060;-62
2023/06/04 08:22:54;;;;;;;3.65;1.75;;;20.40;56.20;;;;;;4192530;28;20097;-62
2023/06/04 08:25:40;;;;;;;3.08;1.73;;;20.40;57.30;;;;;;4181448;28;20152;-62
2023/06/04 08:28:41;;;;;;;4.07;1.80;;;20.40;56.50;;;;;;4175005;28;20055;-62
2023/06/04 08:31:25;;;;;;;5.38;1.75;;;20.40;56.40;;;;;;4176227;28;20056;-61
2023/06/04 08:34:26;;;;;;;;;;;20.40;56.60;;;;;;4166478;28;20048;-61
2023/06/04 08:37:08;;;;;;;3.70;1.83;;;20.40;56.80;;;;;;4176033;28;19931;-61
2023/06/04 08:39:50;;;;;;;1.67;1.58;;;20.40;57.00;;;;;;4196210;28;20059;-61
2023/06/04 08:42:32;;;;;;;5.07;1.80;;;20.40;56.90;;;;;;4192429;28;20048;-62
2023/06/04 08:45:15;;;;;;;3.53;1.55;;;20.40;56.90;;;;;;4192115;28;20055;-65
2023/06/04 08:47:56;;;;;;;4.20;1.75;;;20.40;56.90;;;;;;4190938;28;20399;-66
2023/06/04 08:50:44;;;;;;;3.08;1.42;;;20.40;57.10;;;;;;4174466;28;20048;-61
2023/06/04 08:53:27;;;;;;;4.03;1.85;;;20.40;57.30;;;;;;4177659;28;20079;-62
2023/06/04 08:56:22;;;;;;;3.88;1.58;;;20.50;57.30;;;;;;4183340;28;20044;-65
2023/06/04 08:59:05;;;;;;;4.25;1.80;;;20.50;57.40;;;;;;4173645;28;20403;-65
2023/06/04 09:01:46;;;;;;;1.73;1.63;;;20.50;57.50;;;;;;4175877;28;20549;-65
2023/06/04 09:04:27;;;;;;;3.08;2.13;;;20.50;57.30;;;;;;4178566;28;20048;-65
2023/06/04 09:07:11;;;;;;;2.60;1.67;;;20.50;57.70;;;;;;4183976;28;20529;-65
2023/06/04 09:09:54;;;;;;;2.67;1.63;;;20.60;56.80;;;;;;4193671;28;20039;-65
2023/06/04 09:12:52;;;;;;;5.45;1.73;;;20.60;56.70;;;;;;4194762;28;20052;-65
2023/06/04 09:15:34;;;;;;;3.40;1.40;;;20.60;56.90;;;;;;4194780;28;20201;-65
2023/06/04 09:18:15;;;;;;;2.75;2.08;;;20.70;56.80;;;;;;4190038;28;20391;-65
2023/06/04 09:21:02;;;;;;;2.45;1.50;;;20.70;57.00;;;;;;4192368;28;20489;-65
2023/06/04 09:23:47;;;;;;;5.80;2.08;;;20.70;56.60;;;;;;4193180;28;20502;-64
2023/06/04 09:26:30;;;;;;;4.18;1.85;;;20.70;56.60;;;;;;4200521;28;20429;-65
2023/06/04 09:29:11;;;;;;;4.50;1.65;;;20.70;57.40;;;;;;4211219;28;20059;-65
2023/06/04 09:31:58;;;;;;;3.88;1.95;;;20.70;56.70;;;;;;4211576;28;20109;-65
2023/06/04 09:34:45;;;;;;;4.22;1.50;;;20.80;56.70;;;;;;4196758;28;20051;-64
2023/06/04 09:37:26;;;;;;;3.95;1.80;;;20.80;56.60;;;;;;4176966;28;20099;-65
2023/06/04 09:40:09;;;;;;;2.72;1.63;;;20.80;56.50;;;;;;4177958;28;20107;-64
2023/06/04 09:42:54;;;;;;;3.08;1.70;;;20.80;56.70;;;;;;4189661;28;20051;-65
2023/06/04 09:45:36;;;;;;;3.97;1.50;;;20.80;56.70;;;;;;4194357;28;20074;-65
2023/06/04 09:48:21;;;;;;;4.22;1.88;;;20.90;56.50;;;;;;4194128;28;20059;-65
2023/06/04 09:51:08;;;;;;;4.70;1.80;;;20.90;56.50;;;;;;4194167;28;20047;-65
2023/06/04 09:53:55;;;;;;;4.20;2.08;;;20.90;56.20;;;;;;4193608;28;20138;-64
2023/06/04 09:56:40;;;;;;;2.78;1.65;;;20.90;56.30;;;;;;4193790;28;20063;-65
2023/06/04 09:59:23;;;;;;;5.30;1.50;;;20.90;56.20;;;;;;4193140;28;20050;-64
2023/06/04 10:02:07;;;;;;;3.83;1.67;;;20.90;56.10;;;;;;4177661;28;20522;-64
2023/06/04 10:04:53;;;;;;;5.25;2.63;;;21.00;56.10;;;;;;4177402;28;20610;-64
2023/06/04 10:07:38;;;;;;;5.68;1.55;;;21.00;55.60;;;;;;4165024;28;20048;-61
2023/06/04 10:10:21;;;;;;;2.00;1.40;;;21.00;55.40;;;;;;4196311;28;20510;-62
2023/06/04 10:13:07;;;;;;;3.58;1.80;;;21.10;55.60;;;;;;4192629;28;20052;-58
2023/06/04 10:15:50;;;;;;;2.38;1.70;;;21.10;55.40;;;;;;4194132;28;20047;-61
2023/06/04 10:18:31;;;;;;;1.73;1.63;;;21.10;55.50;;;;;;4193581;28;20118;-61
2023/06/04 10:21:14;;;;;;;4.13;2.08;;;21.10;55.70;;;;;;4192939;28;20400;-60
2023/06/04 10:23:58;;;;;;;3.78;1.85;;;21.10;55.90;;;;;;4197004;28;20048;-61
2023/06/04 10:26:40;;;;;;;2.00;1.80;;;21.20;55.60;;;;;;4177427;28;20056;-61
2023/06/04 10:29:22;;;;;;;3.83;1.88;;;21.20;55.60;;;;;;4192341;28;20051;-61
2023/06/04 10:32:05;;;;;;;3.58;1.92;;;21.20;56.50;;;;;;4192550;28;20537;-61
2023/06/04 10:34:48;;;;;;;5.38;1.85;;;21.20;55.60;;;;;;4192425;28;20150;-61
2023/06/04 10:37:29;;;;;;;1.98;1.67;;;21.20;55.60;;;;;;4193785;28;20051;-61
2023/06/04 10:40:10;;;;;;;;;;;21.20;55.60;;;;;;4197788;28;20165;-61
2023/06/04 10:42:53;;;;;;;4.88;1.90;;;21.20;55.80;;;;;;4192762;28;20378;-61
2023/06/04 10:45:34;;;;;;;2.35;1.95;;;21.20;55.50;;;;;;4183743;28;20047;-58
2023/06/04 10:48:16;;;;;;;5.57;1.80;;;21.20;55.60;;;;;;4193566;28;20074;-62
2023/06/04 10:50:57;;;;;;;1.85;1.70;;;21.20;55.80;;;;;;4193136;28;20110;-62
2023/06/04 10:53:38;;;;;;;2.22;1.55;;;21.30;56.30;;;;;;4193432;28;20121;-62
2023/06/04 10:56:26;;;;;;;1.77;1.50;;;21.20;56.30;;;;;;4193958;28;20063;-62
2023/06/04 10:59:15;;;;;;;4.47;1.75;;;21.20;56.20;;;;;;4204148;28;20609;-61
2023/06/04 11:02:06;;;;;;;2.35;1.67;;;21.30;55.10;;;;;;4177109;28;20052;-62
2023/06/04 11:05:01;;;;;;;4.35;2.72;;;21.30;55.70;;;;;;4177086;28;20056;-62
2023/06/04 11:07:44;;;;;;;2.67;2.03;;;21.30;55.90;;;;;;4177299;28;20052;-62
2023/06/04 11:10:33;;;;;;;4.18;2.10;;;21.30;56.40;;;;;;4190953;28;20048;-62
2023/06/04 11:13:14;;;;;;;4.38;1.85;;;21.30;55.70;;;;;;4192087;28;20114;-62
2023/06/04 11:15:55;;;;;;;4.03;1.85;;;21.30;55.70;;;;;;4193213;28;20122;-62
2023/06/04 11:18:36;;;;;;;3.15;1.95;;;21.30;55.80;;;;;;4176597;28;20060;-62
2023/06/04 11:21:18;;;;;;;2.80;1.92;;;21.30;55.80;;;;;;4176536;28;20051;-62
2023/06/04 11:24:02;;;;;;;3.08;1.70;;;21.30;55.90;;;;;;4185071;28;20055;-61
2023/06/04 11:26:47;;;;;;;4.65;2.08;;;21.40;55.80;;;;;;4160972;28;20070;-62
2023/06/04 11:29:40;;;;;;;4.80;2.05;;;21.40;56.00;;;;;;4175908;28;20126;-62
2023/06/04 11:32:23;;;;;;;3.13;1.80;;;21.40;56.00;;;;;;4176418;28;20075;-62
2023/06/04 11:35:30;;;;;;;4.38;2.13;;;21.40;56.00;;;;;;4176646;28;20059;-62
2023/06/04 11:38:14;;;;;;;5.00;2.00;;;21.40;55.60;;;;;;4112276;28;20052;-69
2023/06/04 11:41:05;;;;;;;3.55;2.05;;;21.40;55.80;;;;;;4180040;28;20052;-69
2023/06/04 11:43:48;;;;;;;2.15;1.83;;;21.40;55.70;;;;;;4164394;28;20083;-70
2023/06/04 11:46:30;;;;;;;1.83;1.73;;;21.40;56.10;;;;;;4175742;28;20102;-69
2023/06/04 11:49:15;;;;;;;7.30;1.95;;;21.40;56.00;;;;;;4175862;28;20048;-70
2023/06/04 11:51:56;;;;;;;3.08;1.75;;;21.40;56.00;;;;;;4187369;28;20056;-70
2023/06/04 11:54:40;;;;;;;3.83;2.25;;;21.40;56.10;;;;;;4192139;28;20115;-70
2023/06/04 11:57:21;;;;;;;4.75;2.15;;;21.50;56.10;;;;;;4192757;28;20131;-70
2023/06/04 12:00:02;;;;;;;2.92;1.60;;;21.40;56.00;;;;;;4192064;28;20051;-69
2023/06/04 12:02:52;;;;;;;3.28;1.80;;;21.50;56.10;;;;;;4192524;28;20044;-70
2023/06/04 12:05:33;;;;;;;2.15;1.90;;;21.50;55.90;;;;;;4192351;28;20391;-70
2023/06/04 12:08:15;;;;;;;5.45;1.60;;;21.40;56.30;;;;;;4192001;28;20507;-70
2023/06/04 12:10:57;;;;;;;2.60;1.80;;;21.50;56.50;;;;;;4192169;28;20105;-70
2023/06/04 12:13:38;;;;;;;3.05;1.80;;;21.50;56.50;;;;;;4191152;28;20046;-70
2023/06/04 12:16:19;;;;;;;;;;;21.50;56.50;;;;;;4192432;28;20396;-70
2023/06/04 12:19:11;;;;;;;4.03;1.83;;;21.50;56.50;;;;;;4192295;28;19927;-69
2023/06/04 12:22:04;;;;;;;3.08;1.95;;;21.50;56.30;;;;;;4191941;28;20059;-64
2023/06/04 12:24:53;;;;;;;3.05;1.83;;;21.50;56.20;;;;;;4192028;28;20047;-69
2023/06/04 12:27:35;;;;;;;2.28;1.50;;;21.50;56.20;;;;;;4175551;28;20488;-69
2023/06/04 12:30:16;;;;;;;4.32;1.83;;;21.50;56.10;;;;;;4179347;28;20059;-69
2023/06/04 12:32:57;;;;;;;;;;;21.50;55.90;;;;;;4191481;28;20495;-70
2023/06/04 12:35:38;;;;;;;4.13;1.60;;;21.50;56.10;;;;;;4191160;28;19939;-70
2023/06/04 12:38:19;;;;;;;4.05;1.30;;;21.50;55.80;;;;;;4191376;28;20063;-69
2023/06/04 12:41:00;;;;;;;3.85;1.88;;;21.50;55.70;;;;;;4192255;28;20050;-69
2023/06/04 12:43:43;;;;;;;3.05;1.73;;;21.50;55.70;;;;;;4192272;28;20522;-68
2023/06/04 12:46:24;;;;;;;5.18;2.05;;;21.50;55.60;;;;;;4190904;28;20102;-69
2023/06/04 12:49:06;;;;;;;3.25;1.65;;;21.50;55.60;;;;;;4172246;28;20585;-69
2023/06/04 12:51:47;;;;;;;;;;;21.50;55.60;;;;;;4175961;28;20187;-68
2023/06/04 12:54:28;;;;;;;2.58;1.77;;;21.50;55.40;;;;;;4185405;28;19935;-69
2023/06/04 12:57:09;;;;;;;2.90;1.83;;;21.50;55.60;;;;;;4191743;28;20206;-69
2023/06/04 12:59:51;;;;;;;2.03;1.58;;;21.50;55.50;;;;;;4191879;28;20056;-69
2023/06/04 13:02:33;;;;;;;2.70;1.30;;;21.50;55.50;;;;;;4191890;28;20518;-68
2023/06/04 13:05:14;;;;;;;2.15;1.42;;;21.50;55.30;;;;;;4191926;28;20068;-69
2023/06/04 13:07:56;;;;;;;;;;;21.50;55.40;;;;;;4192288;28;20117;-69
2023/06/04 13:10:37;;;;;;;2.65;1.70;;;21.50;55.40;;;;;;4190815;28;19943;-69
2023/06/04 13:13:18;;;;;;;1.70;1.33;;;21.50;55.30;;;;;;4191891;28;20056;-69
2023/06/04 13:16:00;;;;;;;4.97;1.90;;;21.50;55.30;;;;;;4177022;28;20118;-69
2023/06/04 13:18:42;;;;;;;2.03;1.42;;;21.50;55.30;;;;;;4191839;28;20152;-69
2023/06/04 13:21:23;;;;;;;3.13;1.60;;;21.50;55.20;;;;;;4191827;28;20055;-69
2023/06/04 13:24:04;;;;;;;1.15;1.02;;;21.50;55.10;;;;;;4191881;28;20043;-67
2023/06/04 13:26:45;;;;;;;3.75;1.50;;;21.50;54.90;;;;;;4191885;28;20071;-69
2023/06/04 13:29:26;;;;;;;3.63;1.40;;;21.60;55.10;;;;;;4191368;28;20051;-70
2023/06/04 13:32:10;;;;;;;4.88;1.83;;;21.60;54.90;;;;;;4191456;28;20051;-70
2023/06/04 13:34:51;;;;;;;2.78;1.50;;;21.60;54.70;;;;;;4191715;28;20075;-70
2023/06/04 13:37:32;;;;;;;1.80;1.23;;;21.60;54.90;;;;;;4190743;28;20236;-70
2023/06/04 13:40:13;;;;;;;2.75;1.38;;;21.60;54.80;;;;;;4191790;28;20162;-69
2023/06/04 13:42:54;;;;;;;2.60;1.52;;;21.60;54.80;;;;;;4191688;28;20055;-70
2023/06/04 13:45:35;;;;;;;1.77;1.23;;;21.60;54.70;;;;;;4191928;28;20063;-69
2023/06/04 13:48:17;;;;;;;2.90;1.40;;;21.60;54.80;;;;;;4193871;28;20688;-69
2023/06/04 13:50:58;;;;;;;3.38;1.60;;;21.60;54.60;;;;;;4194495;28;20051;-69
2023/06/04 13:53:39;;;;;;;1.70;1.52;;;21.60;54.40;;;;;;4201688;28;20058;-68
2023/06/04 13:56:20;;;;;;;2.67;1.38;;;21.60;54.60;;;;;;4203978;28;20043;-69
2023/06/04 13:59:01;;;;;;;2.35;1.45;;;21.60;54.40;;;;;;4194698;28;20054;-69
2023/06/04 14:01:42;;;;;;;1.60;1.50;;;21.60;55.00;;;;;;4194507;28;20052;-69
2023/06/04 14:04:24;;;;;;;3.35;1.48;;;21.60;54.50;;;;;;4194544;28;20101;-69
2023/06/04 14:07:06;;;;;;;2.72;1.38;;;21.60;54.40;;;;;;4202524;28;20124;-69
2023/06/04 14:09:48;;;;;;;1.33;1.20;;;21.60;54.30;;;;;;4210822;28;20513;-69
2023/06/04 14:12:29;;;;;;;3.03;1.25;;;21.60;54.00;;;;;;4197487;28;20105;-68